UDYZ/EVN METAR and TAF weather

Enter ICAO airport designator
Station Type Date Time Source
UDYZ METAR 2020/01/29 19:00 UTC NOAA

UDYZ 291900Z VRB01KT 3500 BR NSC M03/M08 Q1019 R09/010070 NOSIG


Station Type Date Time Source
UDYZ Decoded METAR 2020/01/29 19:00 UTC NOAA

Station name not available
Jan 29, 2020 - 02:00 PM EST / 2020.01.29 1900 UTC
Wind: Variable at 1 MPH (1 KT):0
Visibility: 2 mile(s):0
Weather: mist
Temperature: 26 F (-3 C)
Dew Point: 17 F (-8 C)
Relative Humidity: 68%
Pressure (altimeter): 30.09 in. Hg (1019 hPa)
ob: UDYZ 291900Z VRB01KT 3500 BR NSC M03/M08 Q1019 R09/010070 NOSIG
cycle: 19

Station Type Date Time Source
UDYZ TAF 2020/01/29 18:00 UTC NOAA

TAF UDYZ 291701Z 2918/3018 VRB04KT 3500 BR FEW040
BECMG 3006/3008 6000 NSW

Example: see airport list